Time;durP1;ratioP1;P1;durP2;ratioP2;P2;SDS_P1;SDS_P2;PMS_P1;PMS_P2;Temp;Humidity;BMP_temperature;BMP_pressure;BME280_temperature;BME280_humidity;BME280_pressure;Samples;Min_cycle;Max_cycle;Signal;HPM_P1;HPM_P2
2022/02/06 00:00:59;;;;;;;13.78;6.50;;;;;;;-0.05;87.07;99066.69;1728206;83;22196;-72
2022/02/06 00:03:23;;;;;;;17.82;6.45;;;;;;;-0.03;86.97;99071.31;1728265;83;20857;-72
2022/02/06 00:05:50;;;;;;;16.57;6.58;;;;;;;-0.03;86.91;99075.38;1728115;82;20917;-72
2022/02/06 00:08:20;;;;;;;14.73;6.55;;;;;;;-0.02;86.88;99069.43;1726587;83;21529;-72
2022/02/06 00:10:49;;;;;;;22.55;6.72;;;;;;;-0.02;86.88;99075.64;1728181;83;21509;-72
2022/02/06 00:13:16;;;;;;;13.65;5.72;;;;;;;-0.01;86.82;99077.30;1728466;83;21486;-72
2022/02/06 00:15:43;;;;;;;20.40;7.03;;;;;;;0.00;86.77;99074.06;1727935;82;21077;-73
2022/02/06 00:18:09;;;;;;;15.83;6.47;;;;;;;-0.01;86.72;99067.81;1728540;83;20996;-71
2022/02/06 00:20:49;;;;;;;9.95;5.65;;;;;;;0.01;86.65;99074.85;1728241;82;20921;-73
2022/02/06 00:23:11;;;;;;;16.50;6.45;;;;;;;0.02;86.59;99064.31;1726909;83;21014;-72
2022/02/06 00:28:34;;;;;;;14.13;5.87;;;;;;;0.02;86.53;99061.05;1728279;82;20913;-72
2022/02/06 00:30:58;;;;;;;12.03;5.92;;;;;;;0.02;86.53;99056.98;1725847;83;21012;-72
2022/02/06 00:33:39;;;;;;;13.80;6.50;;;;;;;0.03;86.57;99057.27;1728405;82;20905;-70
2022/02/06 00:36:00;;;;;;;16.45;7.30;;;;;;;0.01;86.61;99052.65;1725776;83;21402;-69
2022/02/06 00:41:32;;;;;;;;;;;;;;;;;;;;;
2022/02/06 00:43:42;;;;;;;16.42;6.47;;;;;;;0.03;86.81;99057.80;1741845;82;20977;-73
2022/02/06 00:46:12;;;;;;;16.35;6.67;;;;;;;0.03;86.87;99052.38;1751617;82;20967;-73
2022/02/06 00:48:42;;;;;;;11.95;5.97;;;;;;;0.05;86.93;99058.37;1751822;82;20880;-72
2022/02/06 00:51:14;;;;;;;16.02;6.08;;;;;;;0.05;86.96;99057.02;1751644;82;21522;-73
2022/02/06 00:53:38;;;;;;;13.28;6.30;;;;;;;0.05;86.99;99053.74;1751224;82;20955;-73
2022/02/06 00:56:06;;;;;;;14.93;5.92;;;;;;;0.05;87.04;99059.16;1751889;82;21394;-73
2022/02/06 00:58:33;;;;;;;15.68;6.72;;;;;;;0.07;87.05;99057.57;1751872;82;20916;-74
2022/02/06 01:01:00;;;;;;;20.10;6.72;;;;;;;0.06;87.05;99049.14;1751742;82;21044;-72
2022/02/06 01:03:27;;;;;;;13.50;6.15;;;;;;;0.05;87.06;99052.39;1752119;82;21287;-73
2022/02/06 01:05:54;;;;;;;10.70;5.50;;;;;;;0.05;87.08;99052.95;1751709;81;20962;-73
2022/02/06 01:08:21;;;;;;;15.50;6.40;;;;;;;0.05;87.12;99050.23;1726625;82;21011;-73
2022/02/06 01:10:50;;;;;;;14.75;6.40;;;;;;;0.04;87.21;99041.81;1751705;82;20999;-73
2022/02/06 01:13:27;;;;;;;17.42;7.03;;;;;;;0.04;87.27;99041.81;1752179;82;20926;-73
2022/02/06 01:15:57;;;;;;;15.37;6.27;;;;;;;0.03;87.27;99041.02;1751173;82;21955;-73
2022/02/06 01:18:27;;;;;;;13.68;5.65;;;;;;;0.02;87.32;99046.70;1749778;82;20921;-73
2022/02/06 01:20:58;;;;;;;12.73;5.85;;;;;;;-0.01;87.39;99058.33;1751179;82;21016;-73
2022/02/06 01:23:28;;;;;;;15.40;6.45;;;;;;;-0.02;87.42;99049.91;1751040;82;20999;-73
2022/02/06 01:26:02;;;;;;;13.38;6.45;;;;;;;-0.03;87.41;99042.87;1751598;82;20917;-72
2022/02/06 01:28:45;;;;;;;15.85;6.53;;;;;;;-0.04;87.34;99048.55;1751240;82;20931;-73
2022/02/06 01:33:55;;;;;;;;;;;;;;;-0.12;87.25;99051.22;1663845;86;21169;-71
2022/02/06 01:36:27;;;;;;;15.58;6.53;;;;;;;-0.16;87.36;99048.73;1723036;82;20222;-73
2022/02/06 01:41:24;;;;;;;14.15;6.72;;;;;;;-0.25;87.48;99047.87;1751852;82;21524;-72
2022/02/06 01:43:58;;;;;;;14.03;6.10;;;;;;;-0.28;87.57;99051.11;1751866;82;20920;-73
2022/02/06 01:57:25;;;;;;;13.93;5.72;;;;;;;-0.33;87.87;99047.00;1752023;81;21575;-73
2022/02/06 02:13:46;;;;;;;17.17;5.80;;;;;;;-0.37;88.98;99050.76;1751755;82;20876;-74
2022/02/06 02:43:46;;;;;;;19.35;6.12;;;;;;;-0.29;90.35;99084.66;1751813;81;20955;-72
2022/02/06 02:48:15;;;;;;;16.60;6.83;;;;;;;-0.27;90.62;99073.03;1751935;82;21080;-71
2022/02/06 02:50:45;;;;;;;14.15;6.15;;;;;;;-0.25;90.59;99082.25;1726694;82;21037;-72
2022/02/06 02:53:17;;;;;;;14.07;6.65;;;;;;;-0.24;90.64;99075.78;1751381;82;20959;-72
2022/02/06 03:00:55;;;;;;;15.20;7.95;;;;;;;-0.24;90.75;99081.20;1751794;81;20908;-69
2022/02/06 03:03:19;;;;;;;17.82;6.50;;;;;;;-0.24;90.81;99081.20;1746261;82;20964;-71
2022/02/06 03:05:45;;;;;;;13.32;7.10;;;;;;;-0.25;90.86;99074.13;1751682;81;21401;-71
2022/02/06 03:08:13;;;;;;;14.83;7.28;;;;;;;-0.24;90.95;99081.20;1751846;82;20845;-72
2022/02/06 03:10:39;;;;;;;15.85;7.45;;;;;;;-0.23;91.00;99076.58;1751845;81;20939;-72
2022/02/06 03:13:10;;;;;;;13.62;7.28;;;;;;;-0.23;91.05;99083.34;1751836;82;21385;-67
2022/02/06 03:15:43;;;;;;;16.85;7.55;;;;;;;-0.26;90.95;99085.49;1751703;82;21426;-67
2022/02/06 03:18:06;;;;;;;15.72;7.75;;;;;;;-0.26;90.94;99090.11;1750765;82;21485;-72
2022/02/06 03:20:34;;;;;;;17.25;8.23;;;;;;;-0.28;91.02;99076.83;1751826;81;20963;-73
2022/02/06 03:23:05;;;;;;;15.50;7.47;;;;;;;-0.29;91.00;99077.89;1751866;81;21031;-72
2022/02/06 03:25:31;;;;;;;22.13;7.87;;;;;;;-0.28;91.08;99082.25;1751807;82;21147;-72
2022/02/06 03:27:59;;;;;;;15.23;7.50;;;;;;;-0.29;91.08;99084.66;1751672;81;21031;-72
2022/02/06 03:30:29;;;;;;;17.50;8.08;;;;;;;-0.30;91.12;99088.45;1751984;81;20829;-72
2022/02/06 03:32:55;;;;;;;18.05;8.43;;;;;;;-0.30;91.13;99078.15;1751520;82;20988;-70
2022/02/06 03:35:23;;;;;;;16.07;8.58;;;;;;;-0.31;91.19;99079.23;1751873;82;20956;-71
2022/02/06 03:37:50;;;;;;;21.52;8.65;;;;;;;-0.31;91.20;99069.75;1751862;82;21512;-70
2022/02/06 03:40:28;;;;;;;28.92;11.10;;;;;;;-0.32;91.25;99075.70;1751557;80;20925;-73
2022/02/06 03:43:06;;;;;;;32.33;12.20;;;;;;;-0.32;91.31;99067.58;1750590;82;20908;-73
2022/02/06 03:45:37;;;;;;;22.32;9.18;;;;;;;-0.32;91.43;99071.64;1751491;82;20935;-74
2022/02/06 03:48:10;;;;;;;16.15;8.05;;;;;;;-0.32;91.50;99070.28;1750471;82;20869;-72
2022/02/06 03:50:33;;;;;;;15.15;7.70;;;;;;;-0.31;91.66;99073.29;1750330;82;22099;-72
2022/02/06 03:52:55;;;;;;;17.20;6.72;;;;;;;-0.28;91.83;99076.00;1751066;82;20833;-72
2022/02/06 03:55:24;;;;;;;17.98;7.47;;;;;;;-0.26;91.92;99076.02;1751690;82;21416;-71
2022/02/06 03:57:51;;;;;;;15.63;7.83;;;;;;;-0.23;91.96;99077.93;1751703;82;21476;-72
2022/02/06 04:00:20;;;;;;;23.85;8.93;;;;;;;-0.19;92.02;99079.05;1752053;82;20868;-72
2022/02/06 04:02:46;;;;;;;16.67;8.48;;;;;;;-0.16;91.98;99082.59;1751747;82;21129;-71
2022/02/06 04:05:15;;;;;;;26.60;9.55;;;;;;;-0.14;91.94;99073.69;1751743;82;20865;-73
2022/02/06 04:07:42;;;;;;;20.45;9.38;;;;;;;-0.13;91.93;99082.07;1751718;82;20976;-72
2022/02/06 04:10:15;;;;;;;18.95;8.50;;;;;;;-0.12;91.90;99085.08;1751808;82;20988;-73
2022/02/06 04:12:45;;;;;;;16.02;7.30;;;;;;;-0.10;91.86;99094.30;1751748;81;20968;-73
2022/02/06 04:15:26;;;;;;;19.12;8.35;;;;;;;-0.09;91.82;99088.62;1752128;81;21413;-72
2022/02/06 04:18:10;;;;;;;15.95;7.62;;;;;;;-0.08;91.79;99085.34;1751722;81;20963;-72
2022/02/06 04:20:23;;;;;;;15.40;8.28;;;;;;;-0.09;91.84;99092.69;1747268;82;20908;-72
2022/02/06 04:22:52;;;;;;;13.38;7.55;;;;;;;-0.08;91.86;99089.41;1726797;82;21524;-73
2022/02/06 04:25:19;;;;;;;14.23;6.53;;;;;;;-0.08;91.86;99084.00;1752167;82;21590;-73
2022/02/06 04:27:45;;;;;;;18.32;6.97;;;;;;;-0.08;91.84;99082.11;1726148;82;21385;-74
2022/02/06 04:30:12;;;;;;;22.98;7.15;;;;;;;-0.06;91.80;99089.98;1751613;81;21513;-74
2022/02/06 04:32:38;;;;;;;15.45;6.83;;;;;;;-0.07;91.78;99091.86;1751694;82;20998;-71
2022/02/06 04:35:13;;;;;;;14.47;7.00;;;;;;;-0.07;91.75;99090.50;1752156;82;20939;-73
2022/02/06 04:37:59;;;;;;;11.57;6.65;;;;;;;-0.07;91.78;99088.36;1750928;82;21448;-73
2022/02/06 04:40:24;;;;;;;21.00;8.35;;;;;;;-0.07;91.78;99091.86;1748721;80;21081;-74
2022/02/06 04:46:06;;;;;;;21.23;8.78;;;;;;;-0.08;91.82;99098.37;1751844;81;21023;-73
2022/02/06 04:51:25;;;;;;;25.35;9.48;;;;;;;-0.05;91.85;99102.47;1751774;82;20916;-71
2022/02/06 05:16:17;;;;;;;17.67;7.67;;;;;;;-0.07;91.85;99100.55;1752508;82;21410;-73
2022/02/06 05:28:35;;;;;;;18.07;8.10;;;;;;;-0.04;91.87;99117.10;1751947;81;20868;-72
2022/02/06 05:33:23;;;;;;;16.48;8.23;;;;;;;-0.03;91.72;99121.44;1751971;82;21116;-72
2022/02/06 05:35:49;;;;;;;20.72;8.63;;;;;;;-0.04;91.71;99127.94;1751702;81;20987;-73
2022/02/06 05:38:16;;;;;;;26.97;10.50;;;;;;;-0.05;91.71;99126.28;1751886;82;21433;-69
2022/02/06 05:40:43;;;;;;;28.38;11.43;;;;;;;-0.04;91.70;99130.65;1711235;82;21446;-72
2022/02/06 05:43:12;;;;;;;25.52;10.13;;;;;;;-0.03;91.78;99132.27;1728161;82;21501;-74
2022/02/06 05:45:39;;;;;;;21.95;9.53;;;;;;;-0.03;91.79;99137.69;1728160;82;21098;-72
2022/02/06 05:48:06;;;;;;;16.65;9.65;;;;;;;-0.01;91.81;99138.25;1728107;82;20865;-72
2022/02/06 05:50:34;;;;;;;21.25;9.00;;;;;;;-0.02;91.82;99140.67;1703593;83;21529;-68
2022/02/06 05:53:00;;;;;;;21.35;10.05;;;;;;;-0.01;91.82;99142.31;1680306;83;20993;-72
2022/02/06 05:55:27;;;;;;;15.93;8.65;;;;;;;0.01;91.82;99142.59;1728186;83;20973;-73
2022/02/06 05:57:53;;;;;;;22.73;9.48;;;;;;;0.02;91.81;99151.02;1728220;83;21120;-73
2022/02/06 06:00:22;;;;;;;21.20;9.68;;;;;;;0.03;91.76;99145.86;1728279;82;20890;-72
2022/02/06 06:02:48;;;;;;;14.83;8.90;;;;;;;0.04;91.77;99142.89;1728211;83;20870;-74
2022/02/06 06:05:14;;;;;;;17.48;8.43;;;;;;;0.06;91.81;99146.69;1728142;83;20946;-74
2022/02/06 06:07:42;;;;;;;17.65;8.80;;;;;;;0.09;91.79;99150.23;1728243;82;21521;-72
2022/02/06 06:10:10;;;;;;;21.25;10.88;;;;;;;0.09;91.77;99141.58;1728096;82;21110;-72
2022/02/06 06:12:38;;;;;;;25.90;11.12;;;;;;;0.11;91.74;99141.31;1727988;83;20901;-72
2022/02/06 06:15:06;;;;;;;18.10;8.75;;;;;;;0.11;91.78;99145.38;1728557;83;20985;-73
2022/02/06 06:17:37;;;;;;;25.37;9.88;;;;;;;0.15;91.69;99148.39;1728177;82;21018;-74
2022/02/06 06:20:07;;;;;;;17.95;10.43;;;;;;;0.17;91.68;99146.24;1728443;83;20874;-73
2022/02/06 06:22:34;;;;;;;19.45;10.10;;;;;;;0.19;91.65;99146.77;1728213;83;21117;-71
2022/02/06 06:25:03;;;;;;;17.65;9.20;;;;;;;0.21;91.65;99155.47;1728369;83;20980;-74
2022/02/06 06:27:29;;;;;;;16.37;10.08;;;;;;;0.23;91.64;99158.75;1703672;83;21501;-72
2022/02/06 06:29:57;;;;;;;18.95;10.20;;;;;;;0.26;91.60;99165.55;1728190;82;20873;-72
2022/02/06 06:32:24;;;;;;;16.52;8.70;;;;;;;0.29;91.54;99154.98;1728128;83;21020;-73
2022/02/06 06:34:52;;;;;;;24.50;11.08;;;;;;;0.32;91.47;99145.00;1728203;82;21952;-74
2022/02/06 06:37:19;;;;;;;23.25;10.13;;;;;;;0.35;91.40;99151.25;1728053;82;21530;-74
2022/02/06 06:39:48;;;;;;;19.90;10.80;;;;;;;0.39;91.36;99149.37;1731750;80;20980;-74
2022/02/06 06:42:14;;;;;;;22.75;10.70;;;;;;;0.42;91.27;99155.09;1751790;82;20912;-71
2022/02/06 06:44:41;;;;;;;16.40;9.33;;;;;;;0.44;91.19;99147.52;1751927;81;21504;-72
2022/02/06 06:47:08;;;;;;;18.02;9.65;;;;;;;0.48;90.99;99151.31;1751806;82;21514;-71
2022/02/06 06:49:35;;;;;;;18.60;9.25;;;;;;;0.53;90.83;99147.02;1752356;81;20829;-73
2022/02/06 06:52:06;;;;;;;23.35;10.23;;;;;;;0.53;90.69;99151.09;1751911;81;20964;-72
2022/02/06 06:54:41;;;;;;;18.55;9.03;;;;;;;0.54;90.53;99153.53;1751854;81;20975;-73
2022/02/06 06:57:27;;;;;;;18.48;10.35;;;;;;;0.57;90.37;99158.95;1750267;82;20996;-71
2022/02/06 07:04:52;;;;;;;25.80;11.68;;;;;;;0.59;89.77;99148.14;1751776;82;21014;-73
2022/02/06 07:07:20;;;;;;;23.05;9.98;;;;;;;0.62;89.55;99151.38;1752189;82;21555;-72
2022/02/06 07:09:46;;;;;;;24.52;11.85;;;;;;;0.61;89.46;99149.23;1751775;82;20857;-73
2022/02/06 07:12:13;;;;;;;25.17;10.45;;;;;;;0.62;89.38;99151.38;1752253;82;21724;-73
2022/02/06 07:14:42;;;;;;;30.15;10.35;;;;;;;0.64;89.38;99150.05;1751743;82;21476;-72
2022/02/06 07:17:10;;;;;;;20.35;9.95;;;;;;;0.68;89.21;99153.06;1751956;82;21040;-73
2022/02/06 07:19:39;;;;;;;19.20;9.58;;;;;;;0.72;88.99;99147.37;1751836;82;20985;-72
2022/02/06 07:22:10;;;;;;;23.62;11.18;;;;;;;0.73;88.61;99151.17;1751877;81;20955;-73
2022/02/06 07:24:37;;;;;;;23.30;10.23;;;;;;;0.73;88.50;99149.82;1752195;81;21425;-71
2022/02/06 07:27:16;;;;;;;17.17;9.30;;;;;;;0.74;88.44;99150.64;1752058;82;20933;-73
2022/02/06 07:29:35;;;;;;;22.32;11.33;;;;;;;0.78;87.98;99150.94;1750326;82;20829;-73
2022/02/06 07:32:04;;;;;;;20.05;10.93;;;;;;;0.80;87.99;99146.87;1751690;82;20988;-72
2022/02/06 07:34:32;;;;;;;17.57;9.20;;;;;;;0.83;87.61;99148.25;1751862;81;21047;-73
2022/02/06 07:36:58;;;;;;;16.82;8.28;;;;;;;0.84;87.38;99145.27;1751697;82;21400;-73
2022/02/06 07:39:30;;;;;;;18.62;9.15;;;;;;;0.85;87.03;99139.31;1726993;82;21002;-73
2022/02/06 07:41:57;;;;;;;16.77;9.20;;;;;;;0.86;86.85;99143.65;1765664;80;20985;-72
2022/02/06 07:44:25;;;;;;;19.90;9.15;;;;;;;0.88;86.79;99150.99;1766871;81;20921;-75
2022/02/06 07:47:00;;;;;;;21.37;9.88;;;;;;;0.90;86.74;99149.37;1766872;81;21537;-73
2022/02/06 07:49:21;;;;;;;22.73;8.58;;;;;;;0.94;86.54;99145.02;1764375;81;21450;-72
2022/02/06 07:51:48;;;;;;;17.67;9.00;;;;;;;0.96;86.42;99148.30;1767147;81;20834;-73
2022/02/06 07:54:15;;;;;;;24.90;10.25;;;;;;;0.99;86.30;99140.98;1767048;81;20920;-75
2022/02/06 07:56:42;;;;;;;23.12;9.10;;;;;;;1.02;86.05;99145.08;1767093;81;21497;-74
2022/02/06 07:59:12;;;;;;;21.90;10.05;;;;;;;1.03;85.50;99157.02;1766854;80;20910;-74
2022/02/06 08:01:39;;;;;;;18.98;9.43;;;;;;;1.04;85.47;99151.06;1766872;81;21143;-74
2022/02/06 08:04:08;;;;;;;17.15;8.23;;;;;;;1.04;85.47;99149.70;1767151;81;21406;-74
2022/02/06 08:06:39;;;;;;;19.00;8.60;;;;;;;1.06;85.26;99155.66;1767122;80;20882;-71
2022/02/06 08:09:05;;;;;;;16.55;9.10;;;;;;;1.08;85.15;99150.25;1766865;81;20985;-73
2022/02/06 08:11:41;;;;;;;20.60;8.85;;;;;;;1.11;84.94;99149.45;1766816;81;21005;-74
2022/02/06 08:14:07;;;;;;;20.37;8.38;;;;;;;1.12;84.71;99157.33;1765098;81;21957;-73
2022/02/06 08:16:36;;;;;;;19.40;8.33;;;;;;;1.14;84.34;99152.99;1766701;81;20985;-73
2022/02/06 08:19:02;;;;;;;18.10;7.17;;;;;;;1.15;84.08;99155.97;1720379;81;21157;-73
2022/02/06 08:21:29;;;;;;;14.83;7.22;;;;;;;1.16;84.18;99161.13;1767171;80;21064;-73
2022/02/06 08:23:55;;;;;;;16.57;8.23;;;;;;;1.20;83.59;99154.09;1766929;80;20946;-74
2022/02/06 08:26:24;;;;;;;20.65;7.05;;;;;;;1.20;83.46;99156.81;1766994;81;21305;-73
2022/02/06 08:28:51;;;;;;;17.15;7.20;;;;;;;1.23;83.22;99158.72;1766881;79;20949;-74
2022/02/06 08:31:18;;;;;;;14.80;7.00;;;;;;;1.24;82.87;99157.63;1767225;81;20886;-73
2022/02/06 08:33:44;;;;;;;22.90;9.33;;;;;;;1.25;82.81;99153.82;1766899;81;21411;-73
2022/02/06 08:36:11;;;;;;;16.85;7.53;;;;;;;1.28;82.68;99158.75;1766777;81;21501;-73
2022/02/06 08:38:40;;;;;;;28.55;9.90;;;;;;;1.29;82.17;99163.91;1766856;81;21381;-74
2022/02/06 08:41:07;;;;;;;22.60;9.20;;;;;;;1.30;82.02;99157.38;1766341;80;20934;-70
2022/02/06 08:43:33;;;;;;;22.52;9.45;;;;;;;1.35;81.90;99155.78;1766650;81;21025;-73
2022/02/06 08:46:02;;;;;;;20.05;9.23;;;;;;;1.37;81.74;99161.73;1767019;81;20948;-71
2022/02/06 08:48:30;;;;;;;16.90;8.28;;;;;;;1.39;81.29;99161.75;1767117;81;21009;-73
2022/02/06 08:50:57;;;;;;;28.45;9.25;;;;;;;1.41;80.97;99154.16;1767058;81;21519;-73
2022/02/06 08:53:25;;;;;;;23.73;9.73;;;;;;;1.43;81.06;99151.17;1767068;81;21387;-75
2022/02/06 08:55:52;;;;;;;22.13;9.15;;;;;;;1.47;80.76;99152.81;1766902;81;20922;-71
2022/02/06 08:58:19;;;;;;;19.02;8.18;;;;;;;1.48;80.60;99160.70;1720858;81;21525;-73
2022/02/06 09:00:45;;;;;;;20.50;8.23;;;;;;;1.50;80.47;99154.99;1767214;81;20870;-74
2022/02/06 09:03:12;;;;;;;21.40;8.80;;;;;;;1.52;79.75;99151.47;1767088;81;21484;-73
2022/02/06 09:05:42;;;;;;;19.85;7.97;;;;;;;1.54;79.68;99140.59;1766932;81;20962;-72
2022/02/06 09:08:08;;;;;;;12.60;6.55;;;;;;;1.59;79.58;99134.35;1767102;81;20878;-72
2022/02/06 09:10:35;;;;;;;17.05;7.35;;;;;;;1.62;78.95;99127.02;1767413;81;20997;-73
2022/02/06 09:13:04;;;;;;;21.15;8.03;;;;;;;1.65;78.87;99131.94;1767480;81;20949;-74
2022/02/06 09:15:33;;;;;;;19.30;9.45;;;;;;;1.70;78.87;99137.38;1766914;79;21534;-74
2022/02/06 09:18:01;;;;;;;22.70;7.67;;;;;;;1.76;78.70;99136.81;1723355;81;21072;-74
2022/02/06 09:20:32;;;;;;;21.23;7.70;;;;;;;1.81;77.90;99132.75;1766993;81;20913;-73
2022/02/06 09:22:56;;;;;;;19.77;9.33;;;;;;;1.86;77.80;99131.92;1766825;81;20990;-73
2022/02/06 09:25:24;;;;;;;24.72;9.05;;;;;;;1.89;77.45;99123.79;1767072;81;20889;-74
2022/02/06 09:27:52;;;;;;;18.55;7.15;;;;;;;1.91;77.01;99118.34;1767220;81;21472;-72
2022/02/06 09:30:21;;;;;;;17.75;6.97;;;;;;;1.96;77.00;99119.44;1767336;81;20877;-74
2022/02/06 09:35:16;;;;;;;16.10;6.67;;;;;;;1.97;75.54;99115.63;1767047;80;20953;-74
2022/02/06 09:37:43;;;;;;;15.20;6.62;;;;;;;1.94;75.57;99106.12;1767269;81;20917;-73
2022/02/06 09:40:14;;;;;;;15.23;6.05;;;;;;;1.91;75.38;99092.53;1767084;81;21471;-74
2022/02/06 09:42:53;;;;;;;13.25;5.95;;;;;;;1.93;75.02;99094.97;1752759;80;21032;-72
2022/02/06 09:45:28;;;;;;;18.05;6.20;;;;;;;1.92;74.96;99092.81;1751932;82;21012;-74
2022/02/06 09:47:54;;;;;;;12.63;5.45;;;;;;;1.92;74.64;99086.02;1752235;82;20932;-73
2022/02/06 09:50:24;;;;;;;17.32;6.22;;;;;;;1.94;74.64;99087.90;1752027;82;21044;-74
2022/02/06 09:52:50;;;;;;;16.55;6.53;;;;;;;1.97;74.28;99087.91;1752153;82;21566;-73
2022/02/06 09:55:19;;;;;;;11.22;6.10;;;;;;;2.01;74.32;99088.19;1751794;82;20833;-72
2022/02/06 09:57:53;;;;;;;11.83;5.45;;;;;;;2.03;73.72;99089.53;1752278;82;20924;-73
2022/02/06 10:00:25;;;;;;;16.32;6.97;;;;;;;2.03;73.53;99088.17;1751915;82;20888;-73
2022/02/06 10:02:53;;;;;;;19.55;6.95;;;;;;;2.05;73.16;99086.00;1751954;82;20972;-68
2022/02/06 10:05:20;;;;;;;15.25;6.53;;;;;;;2.05;72.79;99083.81;1752252;82;21142;-74
2022/02/06 10:08:31;;;;;;;15.10;7.25;;;;;;;2.05;72.81;99083.81;1751905;82;20913;-71
2022/02/06 10:11:00;;;;;;;16.60;6.50;;;;;;;2.05;72.97;99067.50;1719133;82;20841;-74
2022/02/06 10:13:27;;;;;;;17.27;6.83;;;;;;;2.06;72.86;99070.52;1751090;82;20933;-73
2022/02/06 10:15:55;;;;;;;17.40;7.33;;;;;;;2.16;72.89;99071.03;1751902;81;21480;-73
2022/02/06 10:18:23;;;;;;;17.25;5.97;;;;;;;2.25;72.37;99072.09;1751795;82;21144;-71
2022/02/06 10:20:54;;;;;;;15.03;6.40;;;;;;;2.32;72.04;99067.72;1726350;82;21071;-72
2022/02/06 10:23:31;;;;;;;14.93;6.05;;;;;;;2.34;71.82;99065.55;1752126;82;21008;-73
2022/02/06 10:26:05;;;;;;;15.00;5.75;;;;;;;2.37;71.71;99068.27;1712207;83;20984;-75
2022/02/06 10:30:58;;;;;;;18.17;6.43;;;;;;;2.59;70.78;99059.77;1689601;83;21190;-70
2022/02/06 10:33:49;;;;;;;23.95;6.42;;;;;;;2.71;70.59;99059.99;1695132;84;21517;-74
2022/02/06 10:36:19;;;;;;;18.15;6.50;;;;;;;2.78;70.03;99049.63;1713704;83;20960;-74
2022/02/06 10:38:46;;;;;;;11.85;5.62;;;;;;;2.88;69.89;99050.12;1679141;84;21061;-73
2022/02/06 10:41:18;;;;;;;13.80;5.95;;;;;;;2.97;69.44;99049.78;1708652;82;20989;-74
2022/02/06 10:44:06;;;;;;;17.62;6.15;;;;;;;2.99;69.01;99049.50;1675216;85;21137;-75
2022/02/06 10:46:55;;;;;;;17.57;6.30;;;;;;;3.03;68.43;99051.94;1688557;84;20926;-75
2022/02/06 10:49:21;;;;;;;15.28;6.33;;;;;;;3.18;68.39;99046.13;1675090;85;21006;-75
2022/02/06 10:51:57;;;;;;;14.45;5.40;;;;;;;3.28;68.32;99041.97;1688529;84;21042;-74
2022/02/06 10:54:35;;;;;;;15.43;5.62;;;;;;;3.34;67.19;99036.77;1675342;85;21452;-74
2022/02/06 10:57:13;;;;;;;15.70;6.08;;;;;;;3.28;66.86;99031.08;1688812;85;21095;-75
2022/02/06 10:59:53;;;;;;;17.82;6.55;;;;;;;3.22;66.99;99037.66;1675120;85;21455;-72
2022/02/06 11:02:56;;;;;;;17.40;5.95;;;;;;;3.29;67.10;99032.72;1688592;85;21032;-74
2022/02/06 11:05:21;;;;;;;16.73;5.80;;;;;;;3.40;67.30;99037.53;1674313;85;21005;-73
2022/02/06 11:08:01;;;;;;;19.05;5.58;;;;;;;3.51;66.72;99032.83;1688522;84;20898;-74
2022/02/06 11:10:35;;;;;;;18.30;5.75;;;;;;;3.54;66.27;99028.17;1675621;85;21530;-72
2022/02/06 11:13:03;;;;;;;16.55;6.25;;;;;;;3.56;66.49;99027.34;1688399;85;20985;-73
2022/02/06 11:15:39;;;;;;;19.57;8.00;;;;;;;3.53;66.31;99026.55;1675198;85;32710;-73
2022/02/06 11:18:10;;;;;;;15.80;7.05;;;;;;;3.43;66.79;99033.44;1688544;85;20961;-75
2022/02/06 11:20:40;;;;;;;15.15;5.75;;;;;;;3.34;66.96;99028.60;1675409;84;21073;-71
2022/02/06 11:23:06;;;;;;;18.80;7.35;;;;;;;3.24;67.08;99025.95;1688350;85;21963;-73
2022/02/06 11:25:36;;;;;;;18.05;7.03;;;;;;;3.14;67.40;99032.25;1675116;85;21522;-74
2022/02/06 11:28:06;;;;;;;12.47;6.00;;;;;;;3.05;67.87;99030.70;1688398;84;21068;-75
2022/02/06 11:30:33;;;;;;;19.02;6.72;;;;;;;2.97;68.33;99017.69;1675238;85;20950;-74
2022/02/06 11:33:04;;;;;;;14.60;6.72;;;;;;;2.92;68.89;99023.95;1665114;85;21009;-75
2022/02/06 11:35:36;;;;;;;16.27;6.58;;;;;;;2.89;69.30;99029.96;1675249;85;21442;-74
2022/02/06 11:44:34;;;;;;;17.62;7.10;;;;;;;2.85;69.79;99022.90;1688606;84;21017;-70
2022/02/06 11:47:20;;;;;;;19.07;7.58;;;;;;;2.80;70.04;99010.68;1675436;84;21475;-74
2022/02/06 11:49:50;;;;;;;17.60;6.33;;;;;;;2.75;70.37;98999.82;1688377;84;21079;-73
2022/02/06 11:52:16;;;;;;;24.65;7.25;;;;;;;2.73;70.58;99000.10;1674980;85;21033;-74
2022/02/06 11:54:49;;;;;;;22.22;7.70;;;;;;;2.72;70.73;99003.11;1665029;85;21569;-72
2022/02/06 11:57:22;;;;;;;16.80;7.15;;;;;;;2.72;70.78;98999.84;1675247;85;20958;-75
2022/02/06 12:00:08;;;;;;;16.60;7.42;;;;;;;2.72;70.40;99005.29;1688345;84;21584;-72
2022/02/06 12:02:43;;;;;;;20.08;8.18;;;;;;;2.71;70.61;99000.13;1675257;84;21515;-74
2022/02/06 12:05:29;;;;;;;21.35;9.15;;;;;;;2.71;70.81;99001.49;1665358;85;21081;-73
2022/02/06 12:08:04;;;;;;;17.42;7.87;;;;;;;2.73;70.59;99000.67;1675261;85;21008;-70
2022/02/06 12:10:40;;;;;;;19.12;8.15;;;;;;;2.72;70.59;98998.48;1686135;85;21106;-73
2022/02/06 12:13:24;;;;;;;22.77;8.10;;;;;;;2.74;70.45;98996.31;1675233;85;20914;-73
2022/02/06 12:15:56;;;;;;;17.42;7.78;;;;;;;2.76;69.73;98993.30;1687919;85;20969;-69
2022/02/06 12:18:40;;;;;;;14.95;7.20;;;;;;;2.79;69.83;98984.57;1675421;85;21014;-74
2022/02/06 12:21:20;;;;;;;19.48;6.95;;;;;;;2.85;70.09;98986.16;1688473;85;21447;-71
2022/02/06 12:23:59;;;;;;;22.87;7.50;;;;;;;2.91;69.79;98980.97;1675113;85;20918;-76
2022/02/06 12:26:32;;;;;;;20.88;6.80;;;;;;;2.98;69.36;98984.73;1688152;85;20924;-75
2022/02/06 12:29:22;;;;;;;14.15;6.80;;;;;;;3.02;69.11;98987.14;1675126;85;21192;-72
2022/02/06 12:32:01;;;;;;;21.00;7.30;;;;;;;3.02;69.30;98989.07;1688690;84;21002;-73
2022/02/06 12:37:41;;;;;;;14.43;6.62;;;;;;;2.98;69.04;98981.19;1664905;85;20953;-75
2022/02/06 12:40:15;;;;;;;14.87;6.65;;;;;;;2.95;69.04;98979.04;1675140;85;20954;-75
2022/02/06 12:42:57;;;;;;;19.15;6.35;;;;;;;2.91;69.25;98974.70;1708431;81;21536;-74
2022/02/06 12:45:24;;;;;;;19.42;7.15;;;;;;;2.86;69.59;98983.72;1765591;81;20988;-74
2022/02/06 12:47:56;;;;;;;18.73;6.75;;;;;;;2.83;69.65;98980.20;1746091;80;21481;-68
2022/02/06 12:50:32;;;;;;;18.48;7.65;;;;;;;2.79;69.96;98970.97;1766762;80;20980;-70
2022/02/06 12:52:58;;;;;;;18.20;7.45;;;;;;;2.77;70.23;98974.51;1766543;81;20926;-75
2022/02/06 12:55:29;;;;;;;16.30;7.67;;;;;;;2.73;70.23;98978.34;1766780;81;21109;-75
2022/02/06 12:57:57;;;;;;;19.75;7.72;;;;;;;2.68;70.48;98975.11;1766761;80;20910;-75
2022/02/06 13:00:57;;;;;;;20.82;7.72;;;;;;;2.65;70.64;98975.67;1766912;81;20965;-75
2022/02/06 13:03:35;;;;;;;14.30;6.60;;;;;;;2.64;70.53;98972.70;1758232;81;21025;-76
2022/02/06 13:06:06;;;;;;;21.20;7.53;;;;;;;2.63;70.66;98964.78;1766299;81;20994;-75
2022/02/06 13:08:37;;;;;;;16.95;6.95;;;;;;;2.65;70.38;98963.42;1766925;81;21150;-74
2022/02/06 13:11:16;;;;;;;13.53;6.30;;;;;;;2.67;70.46;98960.42;1767189;81;20929;-75
2022/02/06 13:22:14;;;;;;;16.32;6.47;;;;;;;2.61;70.25;98965.64;1694122;84;21705;-75
2022/02/06 13:24:50;;;;;;;16.62;6.28;;;;;;;2.60;69.71;98959.38;1700436;84;21021;-75
2022/02/06 13:27:23;;;;;;;14.75;5.65;;;;;;;2.58;69.69;98962.13;1699399;84;21033;-74
2022/02/06 13:29:43;;;;;;;14.85;6.03;;;;;;;2.55;69.70;98960.22;1699943;84;20918;-74
2022/02/06 13:32:15;;;;;;;14.63;6.45;;;;;;;2.56;69.90;98956.94;1701384;84;21065;-73
2022/02/06 13:35:01;;;;;;;12.93;5.97;;;;;;;2.54;70.05;98955.86;1684251;84;21542;-75
2022/02/06 13:37:23;;;;;;;14.15;6.42;;;;;;;2.56;70.10;98948.77;1689515;84;20981;-74
2022/02/06 13:39:50;;;;;;;14.25;7.30;;;;;;;2.59;70.08;98948.23;1683765;84;21423;-73
2022/02/06 13:42:15;;;;;;;17.37;6.35;;;;;;;2.63;70.00;98943.02;1701089;84;21017;-74
2022/02/06 13:44:41;;;;;;;16.00;6.70;;;;;;;2.67;69.93;98947.64;1702413;83;20986;-74
2022/02/06 13:47:10;;;;;;;20.20;7.00;;;;;;;2.72;69.90;98954.13;1702530;84;21491;-74
2022/02/06 13:49:45;;;;;;;14.60;7.00;;;;;;;2.79;69.71;98942.39;1702052;83;20878;-73
2022/02/06 13:52:12;;;;;;;14.43;6.35;;;;;;;2.88;69.42;98942.61;1701913;84;21395;-74
2022/02/06 13:54:41;;;;;;;15.68;5.60;;;;;;;2.96;69.42;98939.28;1702189;84;21451;-72
2022/02/06 13:57:12;;;;;;;11.45;5.25;;;;;;;3.07;67.93;98934.56;1702291;84;20949;-73
2022/02/06 13:59:43;;;;;;;18.23;5.40;;;;;;;3.13;67.46;98938.89;1702221;83;22409;-73
2022/02/06 14:02:12;;;;;;;8.75;5.00;;;;;;;3.23;66.80;98946.70;1701993;83;20957;-72
2022/02/06 14:04:42;;;;;;;11.28;5.97;;;;;;;3.37;65.91;98942.23;1701995;84;21043;-72